createdAt,value
2018-11-14T00:00:28.592Z,5.50
2018-11-14T00:02:57.771Z,5.40
2018-11-14T00:05:26.214Z,5.97
2018-11-14T00:07:54.731Z,5.70
2018-11-14T00:10:23.139Z,5.83
2018-11-14T00:12:51.569Z,5.83
2018-11-14T00:15:22.285Z,5.63
2018-11-14T00:17:51.386Z,6.00
2018-11-14T00:20:19.840Z,6.83
2018-11-14T00:22:49.314Z,5.83
2018-11-14T00:25:17.857Z,5.93
2018-11-14T00:27:46.338Z,6.50
2018-11-14T00:30:19.314Z,6.37
2018-11-14T00:32:47.400Z,6.00
2018-11-14T00:35:15.901Z,6.40
2018-11-14T00:37:44.924Z,6.60
2018-11-14T00:40:14.572Z,6.30
2018-11-14T00:42:43.655Z,6.30
2018-11-14T00:45:14.133Z,6.60
2018-11-14T00:47:43.634Z,6.30
2018-11-14T00:50:13.389Z,6.50
2018-11-14T00:52:42.272Z,6.40
2018-11-14T00:55:13.585Z,6.80
2018-11-14T00:57:43.054Z,6.93
2018-11-14T01:00:14.349Z,7.13
2018-11-14T01:02:43.239Z,6.73
2018-11-14T01:05:12.762Z,8.07
2018-11-14T01:07:41.184Z,7.00
2018-11-14T01:10:11.715Z,6.60
2018-11-14T01:12:40.508Z,6.73
2018-11-14T01:15:11.189Z,6.30
2018-11-14T01:17:39.849Z,7.40
2018-11-14T01:20:10.317Z,7.37
2018-11-14T01:22:38.725Z,7.07
2018-11-14T01:25:07.959Z,7.50
2018-11-14T01:27:36.359Z,7.00
2018-11-14T01:30:06.761Z,6.57
2018-11-14T01:32:35.160Z,6.63
2018-11-14T01:35:03.597Z,7.20
2018-11-14T01:37:32.021Z,7.60
2018-11-14T01:40:00.452Z,6.70
2018-11-14T01:42:28.884Z,6.97
2018-11-14T01:45:06.053Z,6.03
2018-11-14T01:47:34.752Z,6.63
2018-11-14T01:50:03.564Z,6.90
2018-11-14T01:52:32.010Z,6.70
2018-11-14T01:55:00.451Z,8.40
2018-11-14T01:57:28.877Z,6.97
2018-11-14T01:59:58.417Z,7.10
2018-11-14T02:02:26.880Z,7.30
2018-11-14T02:04:55.353Z,7.03
2018-11-14T02:07:23.773Z,7.50
2018-11-14T02:09:52.400Z,7.97
2018-11-14T02:12:20.872Z,7.03
2018-11-14T02:14:49.333Z,7.13
2018-11-14T02:17:17.732Z,8.10
2018-11-14T02:19:46.189Z,8.00
2018-11-14T02:22:14.622Z,7.47
2018-11-14T02:24:43.050Z,7.60
2018-11-14T02:27:11.509Z,8.00
2018-11-14T02:29:39.958Z,8.20
2018-11-14T02:32:08.377Z,7.80
2018-11-14T02:34:36.841Z,8.57
2018-11-14T02:37:05.329Z,8.53
2018-11-14T02:39:33.759Z,7.93
2018-11-14T02:42:02.514Z,8.93
2018-11-14T02:44:31.000Z,7.90
2018-11-14T02:46:59.449Z,8.20
2018-11-14T02:49:27.877Z,8.30
2018-11-14T02:51:56.291Z,9.00
2018-11-14T02:54:24.708Z,8.50
2018-11-14T02:56:53.166Z,8.60
2018-11-14T02:59:21.610Z,9.20
2018-11-14T03:01:50.061Z,8.80
2018-11-14T03:04:18.498Z,8.20
2018-11-14T03:06:46.954Z,8.43
2018-11-14T03:09:15.377Z,9.10
2018-11-14T03:11:43.813Z,8.57
2018-11-14T03:14:12.222Z,8.77
2018-11-14T03:16:40.669Z,9.63
2018-11-14T03:19:09.096Z,9.53
2018-11-14T03:21:37.557Z,8.50
2018-11-14T03:24:06.207Z,9.37
2018-11-14T03:26:34.661Z,9.53
2018-11-14T03:29:03.062Z,8.70
2018-11-14T03:31:31.484Z,7.17
2018-11-14T03:33:59.881Z,7.30
2018-11-14T03:36:28.325Z,7.03
2018-11-14T03:38:56.737Z,7.37
2018-11-14T03:41:25.187Z,7.00
2018-11-14T03:43:53.621Z,9.20
2018-11-14T03:46:22.062Z,8.70
2018-11-14T03:48:50.477Z,9.40
2018-11-14T03:51:18.920Z,7.17
2018-11-14T03:53:47.369Z,7.43
2018-11-14T03:56:15.808Z,7.00
2018-11-14T03:58:44.217Z,7.30
2018-11-14T04:01:12.667Z,7.50
2018-11-14T04:03:41.099Z,7.07
2018-11-14T04:06:09.557Z,21.70
2018-11-14T04:08:37.982Z,17.73
2018-11-14T04:11:06.753Z,9.90
2018-11-14T04:13:35.170Z,10.10
2018-11-14T04:16:03.621Z,7.50
2018-11-14T04:18:32.044Z,6.70
2018-11-14T04:21:00.484Z,9.50
2018-11-14T04:23:28.900Z,7.27
2018-11-14T04:25:57.329Z,7.50
2018-11-14T04:28:25.741Z,6.43
2018-11-14T04:30:54.176Z,8.20
2018-11-14T04:33:23.014Z,14.67
2018-11-14T04:35:51.414Z,7.40
2018-11-14T04:38:19.857Z,8.33
2018-11-14T04:40:48.273Z,10.10
2018-11-14T04:43:16.757Z,9.57
2018-11-14T04:45:45.172Z,8.20
2018-11-14T04:48:13.662Z,9.33
2018-11-14T04:50:42.110Z,11.27
2018-11-14T04:53:10.566Z,8.30
2018-11-14T04:55:38.987Z,5.67
2018-11-14T04:58:07.460Z,12.53
2018-11-14T05:00:35.874Z,16.00
2018-11-14T05:03:04.366Z,7.97
2018-11-14T05:05:32.813Z,7.20
2018-11-14T05:08:01.296Z,7.10
2018-11-14T05:10:29.708Z,7.57
2018-11-14T05:12:58.250Z,9.00
2018-11-14T05:15:26.875Z,9.23
2018-11-14T05:17:55.728Z,5.17
2018-11-14T05:20:24.212Z,3.97
2018-11-14T05:22:52.922Z,9.37
2018-11-14T05:25:21.393Z,6.07
2018-11-14T05:27:49.834Z,5.90
2018-11-14T05:30:19.724Z,5.97
2018-11-14T05:32:49.071Z,5.27
2018-11-14T05:35:17.745Z,7.80
2018-11-14T05:37:46.577Z,6.97
2018-11-14T05:40:17.371Z,7.60
2018-11-14T05:42:46.532Z,6.53
2018-11-14T05:45:19.998Z,6.90
2018-11-14T05:47:48.473Z,6.17
2018-11-14T05:50:18.153Z,6.57
2018-11-14T05:52:46.599Z,6.63
2018-11-14T05:55:15.459Z,6.90
2018-11-14T05:57:43.885Z,6.00
2018-11-14T06:00:19.681Z,6.10
2018-11-14T06:02:48.143Z,5.70
2018-11-14T06:05:16.598Z,6.43
2018-11-14T06:07:45.067Z,6.47
2018-11-14T06:10:13.851Z,5.97
2018-11-14T06:12:42.879Z,6.90
2018-11-14T06:15:14.806Z,9.17
2018-11-14T06:17:44.157Z,9.10
2018-11-14T06:20:16.040Z,8.90
2018-11-14T06:22:45.469Z,8.30
2018-11-14T06:25:22.524Z,10.47
2018-11-14T06:27:52.089Z,9.93
2018-11-14T06:30:20.969Z,10.80
2018-11-14T06:32:49.705Z,13.77
2018-11-14T06:35:18.703Z,17.77
2018-11-14T06:37:47.511Z,16.83
2018-11-14T06:40:15.924Z,19.40
2018-11-14T06:42:44.383Z,19.20
2018-11-14T06:45:14.125Z,19.70
2018-11-14T06:47:43.977Z,20.10
2018-11-14T06:50:13.090Z,21.03
2018-11-14T06:52:41.996Z,22.13
2018-11-14T06:55:12.315Z,20.00
2018-11-14T06:57:40.817Z,22.60
2018-11-14T07:00:13.693Z,22.43
2018-11-14T07:02:42.644Z,21.77
2018-11-14T07:05:12.836Z,22.70
2018-11-14T07:07:41.498Z,22.33
2018-11-14T07:10:12.019Z,22.20
2018-11-14T07:12:40.453Z,23.00
2018-11-14T07:15:11.438Z,23.50
2018-11-14T07:17:39.918Z,23.20
2018-11-14T07:20:11.553Z,21.37
2018-11-14T07:22:39.980Z,23.40
2018-11-14T07:25:08.878Z,22.53
2018-11-14T07:27:37.305Z,21.20
2018-11-14T07:30:08.329Z,21.57
2018-11-14T07:32:36.756Z,22.57
2018-11-14T07:35:05.742Z,24.13
2018-11-14T07:37:34.178Z,21.30
2018-11-14T07:40:02.622Z,23.17
2018-11-14T07:42:31.028Z,22.70
2018-11-14T07:44:59.479Z,20.10
2018-11-14T07:47:27.905Z,20.20
2018-11-14T07:49:56.418Z,22.00
2018-11-14T07:52:24.807Z,19.93
2018-11-14T07:54:53.244Z,21.13
2018-11-14T07:57:21.664Z,22.87
2018-11-14T07:59:50.101Z,19.77
2018-11-14T08:02:18.560Z,18.57
2018-11-14T08:04:47.000Z,20.53
2018-11-14T08:07:15.412Z,20.53
2018-11-14T08:09:43.862Z,23.57
2018-11-14T08:12:12.312Z,19.43
2018-11-14T08:14:40.770Z,26.50
2018-11-14T08:17:09.192Z,21.60
2018-11-14T08:19:37.650Z,22.23
2018-11-14T08:22:06.093Z,20.20
2018-11-14T08:24:34.507Z,18.40
2018-11-14T08:27:02.952Z,18.30
2018-11-14T08:29:31.454Z,18.80
2018-11-14T08:31:59.898Z,17.00
2018-11-14T08:34:28.318Z,17.07
2018-11-14T08:36:56.756Z,15.97
2018-11-14T08:39:25.314Z,15.97
2018-11-14T08:41:53.695Z,15.50
2018-11-14T08:44:22.102Z,17.20
2018-11-14T08:46:50.559Z,16.97
2018-11-14T08:49:19.024Z,15.93
2018-11-14T08:51:47.485Z,15.27
2018-11-14T08:54:15.907Z,14.93
2018-11-14T08:56:44.382Z,14.00
2018-11-14T08:59:12.810Z,13.30
2018-11-14T09:01:41.297Z,15.07
2018-11-14T09:04:09.766Z,15.40
2018-11-14T09:06:38.226Z,15.00
2018-11-14T09:09:09.283Z,13.90
2018-11-14T09:11:37.730Z,14.93
2018-11-14T09:14:06.467Z,14.77
2018-11-14T09:16:34.912Z,16.80
2018-11-14T09:19:03.343Z,16.53
2018-11-14T09:21:31.788Z,16.20
2018-11-14T09:24:00.225Z,16.10
2018-11-14T09:26:28.665Z,13.67
2018-11-14T09:28:57.092Z,14.40
2018-11-14T09:31:25.537Z,14.63
2018-11-14T09:33:53.973Z,15.40
2018-11-14T09:36:22.386Z,15.80
2018-11-14T09:38:50.857Z,14.70
2018-11-14T09:41:19.292Z,15.27
2018-11-14T09:43:47.754Z,16.67
2018-11-14T09:46:16.193Z,14.70
2018-11-14T09:48:44.651Z,14.93
2018-11-14T09:51:13.077Z,16.50
2018-11-14T09:53:41.524Z,15.97
2018-11-14T09:56:09.960Z,15.80
2018-11-14T09:58:38.438Z,17.40
2018-11-14T10:01:07.005Z,15.50
2018-11-14T10:03:35.476Z,15.27
2018-11-14T10:06:03.979Z,15.27
2018-11-14T10:08:32.398Z,16.90
2018-11-14T10:11:00.907Z,15.47
2018-11-14T10:13:29.302Z,15.70
2018-11-14T10:15:57.711Z,15.70
2018-11-14T10:18:26.264Z,16.23
2018-11-14T10:20:54.674Z,15.70
2018-11-14T10:23:23.137Z,14.50
2018-11-14T10:25:51.547Z,16.07
2018-11-14T10:28:20.007Z,16.03
2018-11-14T10:30:48.555Z,16.17
2018-11-14T10:33:17.841Z,15.90
2018-11-14T10:35:46.291Z,14.00
2018-11-14T10:38:14.748Z,14.60
2018-11-14T10:40:43.207Z,15.60
2018-11-14T10:43:11.642Z,16.33
2018-11-14T10:45:40.131Z,15.20
2018-11-14T10:48:08.582Z,13.03
2018-11-14T10:50:37.012Z,14.97
2018-11-14T10:53:05.757Z,14.73
2018-11-14T10:55:34.174Z,15.00
2018-11-14T10:58:02.648Z,15.97
2018-11-14T11:00:36.492Z,15.63
2018-11-14T11:03:10.194Z,15.43
2018-11-14T11:05:43.772Z,15.43
2018-11-14T11:08:18.455Z,15.07
2018-11-14T11:10:52.110Z,15.87
2018-11-14T11:13:25.977Z,14.60
2018-11-14T11:15:59.639Z,15.93
2018-11-14T11:18:29.824Z,14.83
2018-11-14T11:20:58.301Z,14.97
2018-11-14T11:23:26.776Z,15.00
2018-11-14T11:25:55.221Z,14.30
2018-11-14T11:28:23.685Z,14.33
2018-11-14T11:30:52.250Z,14.33
2018-11-14T11:33:20.625Z,13.80
2018-11-14T11:35:49.093Z,14.60
2018-11-14T11:38:17.591Z,14.70
2018-11-14T11:40:46.066Z,13.80
2018-11-14T11:43:14.495Z,14.90
2018-11-14T11:45:42.977Z,14.70
2018-11-14T11:48:11.497Z,13.57
2018-11-14T11:50:39.946Z,13.77
2018-11-14T11:53:08.368Z,13.67
2018-11-14T11:55:36.805Z,13.37
2018-11-14T11:58:05.692Z,14.00
2018-11-14T12:00:34.274Z,14.20
2018-11-14T12:03:02.636Z,13.37
2018-11-14T12:05:31.090Z,13.80
2018-11-14T12:07:59.512Z,13.13
2018-11-14T12:10:27.988Z,13.23
2018-11-14T12:12:56.443Z,13.90
2018-11-14T12:15:24.885Z,15.50
2018-11-14T12:17:53.418Z,13.90
2018-11-14T12:20:21.796Z,14.40
2018-11-14T12:22:50.230Z,14.60
2018-11-14T12:25:18.682Z,13.83
2018-11-14T12:27:47.106Z,13.70
2018-11-14T12:30:17.123Z,14.20
2018-11-14T12:32:45.504Z,15.03
2018-11-14T12:35:15.332Z,14.40
2018-11-14T12:37:43.728Z,14.47
2018-11-14T12:40:13.201Z,14.00
2018-11-14T12:42:41.848Z,14.10
2018-11-14T12:45:12.375Z,13.37
2018-11-14T12:47:40.872Z,14.20
2018-11-14T12:50:10.231Z,14.50
2018-11-14T12:52:38.854Z,14.97
2018-11-14T12:55:09.270Z,14.73
2018-11-14T12:57:37.712Z,14.40
2018-11-14T13:00:07.799Z,14.63
2018-11-14T13:02:36.246Z,15.03
2018-11-14T13:05:04.899Z,16.17
2018-11-14T13:07:33.364Z,15.03
2018-11-14T13:10:01.789Z,15.27
2018-11-14T13:12:30.236Z,16.40
2018-11-14T13:14:58.675Z,15.00
2018-11-14T13:17:27.129Z,14.80
2018-11-14T13:19:55.572Z,15.23
2018-11-14T13:22:24.030Z,15.47
2018-11-14T13:24:52.447Z,17.60
2018-11-14T13:27:20.911Z,16.07
2018-11-14T13:29:49.346Z,16.53
2018-11-14T13:32:17.833Z,15.80
2018-11-14T13:34:46.254Z,16.37
2018-11-14T13:37:14.728Z,16.00
2018-11-14T13:39:43.263Z,15.33
2018-11-14T13:42:11.712Z,16.50
2018-11-14T13:44:40.171Z,15.90
2018-11-14T13:47:08.620Z,15.50
2018-11-14T13:49:37.172Z,15.40
2018-11-14T13:52:05.889Z,14.07
2018-11-14T13:54:34.314Z,14.53
2018-11-14T13:57:02.816Z,13.57
2018-11-14T13:59:31.245Z,14.87
2018-11-14T14:01:59.714Z,14.67
2018-11-14T14:04:28.185Z,14.70
2018-11-14T14:06:56.657Z,15.37
2018-11-14T14:09:25.163Z,15.13
2018-11-14T14:11:53.536Z,15.13
2018-11-14T14:14:22.013Z,15.10
2018-11-14T14:16:50.457Z,14.63
2018-11-14T14:19:18.927Z,14.03
2018-11-14T14:21:47.363Z,14.63
2018-11-14T14:24:15.849Z,14.27
2018-11-14T14:26:44.276Z,14.63
2018-11-14T14:29:12.739Z,13.20
2018-11-14T14:31:41.193Z,13.70
2018-11-14T14:34:09.641Z,13.30
2018-11-14T14:36:38.093Z,13.07
2018-11-14T14:39:08.876Z,13.30
2018-11-14T14:41:37.355Z,13.30
2018-11-14T14:44:06.105Z,13.80
2018-11-14T14:46:34.532Z,12.43
2018-11-14T14:49:03.098Z,13.67
2018-11-14T14:51:31.593Z,12.73
2018-11-14T14:54:00.046Z,12.13
2018-11-14T14:56:28.506Z,13.90
2018-11-14T14:59:03.690Z,14.40
2018-11-14T15:01:32.144Z,13.63
2018-11-14T15:04:00.638Z,14.47
2018-11-14T15:06:29.066Z,13.70
2018-11-14T15:08:57.577Z,14.73
2018-11-14T15:11:26.016Z,15.20
2018-11-14T15:13:54.480Z,14.80
2018-11-14T15:16:22.925Z,14.07
2018-11-14T15:18:51.348Z,15.10
2018-11-14T15:21:19.804Z,13.83
2018-11-14T15:23:48.520Z,14.40
2018-11-14T15:26:16.993Z,15.33
2018-11-14T15:28:45.428Z,15.13
2018-11-14T15:31:13.890Z,15.20
2018-11-14T15:33:42.322Z,14.20
2018-11-14T15:36:10.831Z,14.17
2018-11-14T15:38:39.266Z,13.50
2018-11-14T15:41:07.743Z,14.70
2018-11-14T15:43:36.202Z,14.40
2018-11-14T15:46:04.693Z,15.40
2018-11-14T15:48:33.108Z,14.90
2018-11-14T15:51:01.580Z,15.47
2018-11-14T15:53:29.990Z,15.70
2018-11-14T15:55:58.456Z,15.30
2018-11-14T15:58:26.874Z,14.90
2018-11-14T16:00:55.337Z,15.13
2018-11-14T16:03:23.774Z,17.03
2018-11-14T16:05:52.241Z,15.27
2018-11-14T16:08:20.652Z,16.50
2018-11-14T16:10:49.109Z,16.03
2018-11-14T16:13:17.530Z,16.07
2018-11-14T16:15:45.990Z,16.60
2018-11-14T16:18:14.436Z,16.27
2018-11-14T16:20:42.885Z,15.60
2018-11-14T16:23:11.307Z,14.17
2018-11-14T16:25:39.760Z,15.60
2018-11-14T16:28:08.227Z,15.00
2018-11-14T16:30:37.534Z,13.97
2018-11-14T16:33:07.270Z,14.30
2018-11-14T16:35:35.776Z,14.80
2018-11-14T16:38:04.292Z,14.17
2018-11-14T16:40:33.902Z,14.00
2018-11-14T16:43:03.844Z,14.83
2018-11-14T16:45:32.290Z,14.30
2018-11-14T16:48:00.729Z,15.03
2018-11-14T16:50:29.184Z,14.60
2018-11-14T16:52:57.626Z,15.47
2018-11-14T16:55:26.084Z,17.23
2018-11-14T16:57:55.559Z,16.53
2018-11-14T17:00:27.243Z,16.90
2018-11-14T17:02:55.749Z,16.57
2018-11-14T17:05:25.176Z,36.87
2018-11-14T17:07:53.855Z,38.10
2018-11-14T17:10:22.889Z,19.10
2018-11-14T17:12:52.681Z,15.87
2018-11-14T17:15:22.443Z,15.93
2018-11-14T17:17:50.896Z,18.10
2018-11-14T17:20:20.168Z,15.23
2018-11-14T17:22:49.255Z,15.30
2018-11-14T17:25:18.298Z,14.63
2018-11-14T17:27:47.180Z,14.40
2018-11-14T17:30:18.206Z,13.40
2018-11-14T17:32:46.704Z,15.47
2018-11-14T17:35:15.874Z,15.03
2018-11-14T17:37:44.784Z,14.60
2018-11-14T17:40:16.492Z,14.20
2018-11-14T17:42:45.763Z,14.73
2018-11-14T17:45:15.879Z,14.63
2018-11-14T17:47:44.425Z,15.23
2018-11-14T17:50:16.472Z,14.20
2018-11-14T17:52:45.304Z,15.30
2018-11-14T17:55:14.703Z,15.43
2018-11-14T17:57:43.191Z,15.27
2018-11-14T18:00:13.372Z,14.97
2018-11-14T18:02:42.698Z,14.60
2018-11-14T18:05:15.672Z,14.90
2018-11-14T18:07:44.878Z,14.50
2018-11-14T18:10:14.588Z,14.67
2018-11-14T18:12:43.629Z,14.80
2018-11-14T18:15:12.630Z,16.10
2018-11-14T18:17:41.663Z,15.93
2018-11-14T18:20:27.593Z,16.47
2018-11-14T18:22:56.362Z,17.60
2018-11-14T18:25:24.799Z,17.30
2018-11-14T18:27:53.254Z,16.10
2018-11-14T18:30:25.752Z,15.30
2018-11-14T18:32:55.172Z,15.00
2018-11-14T18:35:24.152Z,17.73
2018-11-14T18:37:53.392Z,17.20
2018-11-14T18:40:23.128Z,16.27
2018-11-14T18:42:51.578Z,16.67
2018-11-14T18:45:22.517Z,16.40
2018-11-14T18:47:51.026Z,15.57
2018-11-14T18:50:20.274Z,15.33
2018-11-14T18:52:49.213Z,15.33
2018-11-14T18:55:18.705Z,15.50
2018-11-14T18:57:47.520Z,14.43
2018-11-14T19:00:18.991Z,15.70
2018-11-14T19:02:47.456Z,15.33
2018-11-14T19:05:16.507Z,14.57
2018-11-14T19:07:45.013Z,15.57
2018-11-14T19:10:14.878Z,15.73
2018-11-14T19:12:43.880Z,14.20
2018-11-14T19:15:15.705Z,13.97
2018-11-14T19:17:44.139Z,13.77
2018-11-14T19:20:17.212Z,14.90
2018-11-14T19:22:46.055Z,14.07
2018-11-14T19:25:16.776Z,16.50
2018-11-14T19:27:45.913Z,13.70
2018-11-14T19:30:18.690Z,12.57
2018-11-14T19:32:48.226Z,14.33
2018-11-14T19:35:16.919Z,15.30
2018-11-14T19:37:46.581Z,13.60
2018-11-14T19:40:19.329Z,13.17
2018-11-14T19:42:48.692Z,12.83
2018-11-14T19:45:18.973Z,13.87
2018-11-14T19:47:47.397Z,13.20
2018-11-14T19:50:16.952Z,14.37
2018-11-14T19:52:45.828Z,13.53
2018-11-14T19:55:15.618Z,13.30
2018-11-14T19:57:44.976Z,12.40
2018-11-14T20:00:16.823Z,13.30
2018-11-14T20:02:45.242Z,12.43
2018-11-14T20:05:14.808Z,13.10
2018-11-14T20:07:43.223Z,12.47
2018-11-14T20:10:18.885Z,13.27
2018-11-14T20:12:47.842Z,12.50
2018-11-14T20:15:17.698Z,12.40
2018-11-14T20:17:46.817Z,11.60
2018-11-14T20:20:16.783Z,12.80
2018-11-14T20:22:45.636Z,12.97
2018-11-14T20:25:14.133Z,12.60
2018-11-14T20:27:42.839Z,11.73
2018-11-14T20:30:12.843Z,10.27
2018-11-14T20:32:41.351Z,10.87
2018-11-14T20:35:11.128Z,12.93
2018-11-14T20:37:39.916Z,12.40
2018-11-14T20:40:09.876Z,12.87
2018-11-14T20:42:38.701Z,12.23
2018-11-14T20:45:09.323Z,10.80
2018-11-14T20:47:37.749Z,11.83
2018-11-14T20:50:08.850Z,11.60
2018-11-14T20:52:37.340Z,11.47
2018-11-14T20:55:07.735Z,12.30
2018-11-14T20:57:36.533Z,11.97
2018-11-14T21:00:06.106Z,11.53
2018-11-14T21:02:34.527Z,11.90
2018-11-14T21:05:03.032Z,11.80
2018-11-14T21:07:31.470Z,11.03
2018-11-14T21:09:59.910Z,11.17
2018-11-14T21:12:28.391Z,11.67
2018-11-14T21:14:56.791Z,11.27
2018-11-14T21:17:25.227Z,8.63
2018-11-14T21:19:53.664Z,7.30
2018-11-14T21:22:22.092Z,8.70
2018-11-14T21:24:50.530Z,11.30
2018-11-14T21:27:18.971Z,11.50
2018-11-14T21:29:47.437Z,11.40
2018-11-14T21:32:15.847Z,11.10
2018-11-14T21:34:44.244Z,11.77
2018-11-14T21:37:12.688Z,11.33
2018-11-14T21:39:41.117Z,11.00
2018-11-14T21:42:09.557Z,10.80
2018-11-14T21:44:37.979Z,11.00
2018-11-14T21:47:06.426Z,9.60
2018-11-14T21:49:34.840Z,7.73
2018-11-14T21:52:03.293Z,7.90
2018-11-14T21:54:31.706Z,8.83
2018-11-14T21:57:00.150Z,6.40
2018-11-14T21:59:28.560Z,6.90
2018-11-14T22:01:56.984Z,8.17
2018-11-14T22:04:25.417Z,11.97
2018-11-14T22:06:53.850Z,8.37
2018-11-14T22:09:22.263Z,6.77
2018-11-14T22:11:50.718Z,5.07
2018-11-14T22:14:19.125Z,7.40
2018-11-14T22:16:47.540Z,22.00
2018-11-14T22:19:16.004Z,17.80
2018-11-14T22:21:44.437Z,17.53
2018-11-14T22:24:12.893Z,14.97
2018-11-14T22:26:41.310Z,14.10
2018-11-14T22:29:09.753Z,12.93
2018-11-14T22:31:38.183Z,10.10
2018-11-14T22:34:07.057Z,9.50
2018-11-14T22:36:35.480Z,10.60
2018-11-14T22:39:04.653Z,9.93
2018-11-14T22:41:33.060Z,9.90
2018-11-14T22:44:01.495Z,10.53
2018-11-14T22:46:29.894Z,9.47
2018-11-14T22:48:58.352Z,8.03
2018-11-14T22:51:26.777Z,7.80
2018-11-14T22:53:55.224Z,6.07
2018-11-14T22:56:23.649Z,6.43
2018-11-14T22:58:52.127Z,6.40
2018-11-14T23:01:20.566Z,6.07
2018-11-14T23:03:49.033Z,5.90
2018-11-14T23:06:17.448Z,7.43
2018-11-14T23:08:45.887Z,6.70
2018-11-14T23:11:14.295Z,5.70
2018-11-14T23:13:42.732Z,5.80
2018-11-14T23:16:11.159Z,7.50
2018-11-14T23:18:39.593Z,8.57
2018-11-14T23:21:08.030Z,11.63
2018-11-14T23:23:36.465Z,8.30
2018-11-14T23:26:04.892Z,8.00
2018-11-14T23:28:33.331Z,7.97
2018-11-14T23:31:01.748Z,6.40
2018-11-14T23:33:30.220Z,7.13
2018-11-14T23:35:58.641Z,7.93
2018-11-14T23:38:27.080Z,8.00
2018-11-14T23:40:55.522Z,17.37
2018-11-14T23:43:23.950Z,16.67
2018-11-14T23:45:52.370Z,8.10
2018-11-14T23:48:20.805Z,11.03
2018-11-14T23:50:49.254Z,15.27
2018-11-14T23:53:17.690Z,13.07
2018-11-14T23:55:46.149Z,11.00
2018-11-14T23:58:14.600Z,11.67
